sensor_id;sensor_type;location;lat;lon;timestamp;temperature;humidity
52439;DHT22;38359;53.150;6.504;2023-05-16T00:02:52;9.30;99.90
52439;DHT22;38359;53.150;6.504;2023-05-16T00:13:18;9.30;99.90
52439;DHT22;38359;53.150;6.504;2023-05-16T00:23:49;9.10;99.90
52439;DHT22;38359;53.150;6.504;2023-05-16T00:34:17;8.90;99.90
52439;DHT22;38359;53.150;6.504;2023-05-16T00:44:43;8.90;99.90
52439;DHT22;38359;53.150;6.504;2023-05-16T00:55:09;8.80;99.90
52439;DHT22;38359;53.150;6.504;2023-05-16T01:05:38;8.70;99.90
52439;DHT22;38359;53.150;6.504;2023-05-16T01:26:35;8.50;99.90
52439;DHT22;38359;53.150;6.504;2023-05-16T01:37:13;8.60;99.90
52439;DHT22;38359;53.150;6.504;2023-05-16T01:47:48;8.60;99.90
52439;DHT22;38359;53.150;6.504;2023-05-16T01:58:24;8.60;99.90
52439;DHT22;38359;53.150;6.504;2023-05-16T02:08:50;8.70;99.90
52439;DHT22;38359;53.150;6.504;2023-05-16T02:19:16;8.70;99.90
52439;DHT22;38359;53.150;6.504;2023-05-16T02:29:42;8.60;99.90
52439;DHT22;38359;53.150;6.504;2023-05-16T02:40:08;8.60;99.90
52439;DHT22;38359;53.150;6.504;2023-05-16T02:50:36;8.70;99.90
52439;DHT22;38359;53.150;6.504;2023-05-16T03:01:04;8.60;99.90
52439;DHT22;38359;53.150;6.504;2023-05-16T03:11:30;8.60;99.90
52439;DHT22;38359;53.150;6.504;2023-05-16T03:21:56;8.50;99.90
52439;DHT22;38359;53.150;6.504;2023-05-16T03:32:22;8.20;99.90
52439;DHT22;38359;53.150;6.504;2023-05-16T03:42:48;8.20;99.90
52439;DHT22;38359;53.150;6.504;2023-05-16T03:53:14;8.10;99.90
52439;DHT22;38359;53.150;6.504;2023-05-16T04:03:40;7.90;99.90
52439;DHT22;38359;53.150;6.504;2023-05-16T04:14:06;7.90;99.90
52439;DHT22;38359;53.150;6.504;2023-05-16T04:24:31;8.00;99.90
52439;DHT22;38359;53.150;6.504;2023-05-16T04:34:57;8.20;99.90
52439;DHT22;38359;53.150;6.504;2023-05-16T04:45:24;8.30;99.90
52439;DHT22;38359;53.150;6.504;2023-05-16T04:55:50;8.70;99.90
52439;DHT22;38359;53.150;6.504;2023-05-16T05:06:16;9.00;99.90
52439;DHT22;38359;53.150;6.504;2023-05-16T05:16:41;8.70;99.90
52439;DHT22;38359;53.150;6.504;2023-05-16T05:27:07;8.90;99.90
52439;DHT22;38359;53.150;6.504;2023-05-16T05:37:33;8.70;99.90
52439;DHT22;38359;53.150;6.504;2023-05-16T05:47:59;9.00;99.90
52439;DHT22;38359;53.150;6.504;2023-05-16T05:58:25;9.40;99.90
52439;DHT22;38359;53.150;6.504;2023-05-16T06:08:51;9.60;99.90
52439;DHT22;38359;53.150;6.504;2023-05-16T06:19:16;9.60;99.90
52439;DHT22;38359;53.150;6.504;2023-05-16T06:29:42;9.80;99.90
52439;DHT22;38359;53.150;6.504;2023-05-16T06:40:08;9.80;99.90
52439;DHT22;38359;53.150;6.504;2023-05-16T06:50:35;10.30;99.90
52439;DHT22;38359;53.150;6.504;2023-05-16T07:01:00;10.30;99.90
52439;DHT22;38359;53.150;6.504;2023-05-16T07:11:26;10.50;99.90
52439;DHT22;38359;53.150;6.504;2023-05-16T07:21:52;11.00;99.90
52439;DHT22;38359;53.150;6.504;2023-05-16T07:32:18;10.60;99.90
52439;DHT22;38359;53.150;6.504;2023-05-16T07:42:44;10.40;99.90
52439;DHT22;38359;53.150;6.504;2023-05-16T07:53:10;10.90;99.90
52439;DHT22;38359;53.150;6.504;2023-05-16T08:03:36;11.40;99.90
52439;DHT22;38359;53.150;6.504;2023-05-16T08:14:02;11.70;99.90
52439;DHT22;38359;53.150;6.504;2023-05-16T08:24:28;11.40;99.90
52439;DHT22;38359;53.150;6.504;2023-05-16T08:34:54;11.30;99.90
52439;DHT22;38359;53.150;6.504;2023-05-16T08:45:21;11.40;99.90
52439;DHT22;38359;53.150;6.504;2023-05-16T08:55:48;11.80;99.90
52439;DHT22;38359;53.150;6.504;2023-05-16T09:06:16;12.10;99.90
52439;DHT22;38359;53.150;6.504;2023-05-16T09:16:42;12.50;99.90
52439;DHT22;38359;53.150;6.504;2023-05-16T09:27:12;12.60;99.90
52439;DHT22;38359;53.150;6.504;2023-05-16T09:37:43;12.50;99.90
52439;DHT22;38359;53.150;6.504;2023-05-16T09:48:14;12.70;99.90
52439;DHT22;38359;53.150;6.504;2023-05-16T09:58:42;13.50;99.90
52439;DHT22;38359;53.150;6.504;2023-05-16T10:09:11;12.00;99.90
52439;DHT22;38359;53.150;6.504;2023-05-16T10:19:38;12.30;99.90
52439;DHT22;38359;53.150;6.504;2023-05-16T10:30:05;12.80;99.90
52439;DHT22;38359;53.150;6.504;2023-05-16T10:40:35;12.70;99.90
52439;DHT22;38359;53.150;6.504;2023-05-16T10:51:31;13.50;99.90
52439;DHT22;38359;53.150;6.504;2023-05-16T11:02:01;13.00;99.90
52439;DHT22;38359;53.150;6.504;2023-05-16T11:12:46;13.70;99.90
52439;DHT22;38359;53.150;6.504;2023-05-16T11:33:42;13.10;99.90
52439;DHT22;38359;53.150;6.504;2023-05-16T11:44:13;12.80;99.90
52439;DHT22;38359;53.150;6.504;2023-05-16T11:54:39;13.80;99.90
52439;DHT22;38359;53.150;6.504;2023-05-16T12:05:09;13.20;99.90
52439;DHT22;38359;53.150;6.504;2023-05-16T12:15:35;14.00;99.90
52439;DHT22;38359;53.150;6.504;2023-05-16T12:26:02;13.50;99.90
52439;DHT22;38359;53.150;6.504;2023-05-16T12:36:32;13.00;99.90
52439;DHT22;38359;53.150;6.504;2023-05-16T12:46:59;15.00;99.90
52439;DHT22;38359;53.150;6.504;2023-05-16T12:57:25;13.60;99.90
52439;DHT22;38359;53.150;6.504;2023-05-16T13:07:50;13.40;99.90
52439;DHT22;38359;53.150;6.504;2023-05-16T13:18:16;13.30;99.90
52439;DHT22;38359;53.150;6.504;2023-05-16T13:28:42;13.50;99.90
52439;DHT22;38359;53.150;6.504;2023-05-16T13:39:08;12.80;99.90
52439;DHT22;38359;53.150;6.504;2023-05-16T13:49:33;12.40;99.90
52439;DHT22;38359;53.150;6.504;2023-05-16T14:00:00;12.20;99.90
52439;DHT22;38359;53.150;6.504;2023-05-16T14:10:25;11.60;99.90
52439;DHT22;38359;53.150;6.504;2023-05-16T14:20:51;12.90;99.90
52439;DHT22;38359;53.150;6.504;2023-05-16T14:31:20;12.30;99.90
52439;DHT22;38359;53.150;6.504;2023-05-16T14:41:46;12.10;99.90
52439;DHT22;38359;53.150;6.504;2023-05-16T14:52:12;13.30;99.90
52439;DHT22;38359;53.150;6.504;2023-05-16T15:02:38;12.90;99.90
52439;DHT22;38359;53.150;6.504;2023-05-16T15:13:03;12.40;99.90
52439;DHT22;38359;53.150;6.504;2023-05-16T15:23:29;12.90;99.90
52439;DHT22;38359;53.150;6.504;2023-05-16T15:33:55;13.10;99.90
52439;DHT22;38359;53.150;6.504;2023-05-16T15:44:21;12.50;99.90
52439;DHT22;38359;53.150;6.504;2023-05-16T15:54:47;11.90;99.90
52439;DHT22;38359;53.150;6.504;2023-05-16T16:05:12;11.20;99.90
52439;DHT22;38359;53.150;6.504;2023-05-16T16:15:38;11.80;99.90
52439;DHT22;38359;53.150;6.504;2023-05-16T16:26:06;11.80;99.90
52439;DHT22;38359;53.150;6.504;2023-05-16T16:36:32;12.00;99.90
52439;DHT22;38359;53.150;6.504;2023-05-16T16:46:57;12.30;99.90
52439;DHT22;38359;53.150;6.504;2023-05-16T16:57:23;13.50;99.90
52439;DHT22;38359;53.150;6.504;2023-05-16T17:07:49;13.80;99.90
52439;DHT22;38359;53.150;6.504;2023-05-16T17:18:15;12.80;99.90
52439;DHT22;38359;53.150;6.504;2023-05-16T17:28:43;12.50;99.90
52439;DHT22;38359;53.150;6.504;2023-05-16T17:39:10;13.60;99.90
52439;DHT22;38359;53.150;6.504;2023-05-16T17:49:36;12.40;99.90
52439;DHT22;38359;53.150;6.504;2023-05-16T18:00:03;12.80;99.90
52439;DHT22;38359;53.150;6.504;2023-05-16T18:10:30;12.70;99.90
52439;DHT22;38359;53.150;6.504;2023-05-16T18:20:57;12.30;99.90
52439;DHT22;38359;53.150;6.504;2023-05-16T18:31:23;12.10;99.90
52439;DHT22;38359;53.150;6.504;2023-05-16T18:41:48;11.90;99.90
52439;DHT22;38359;53.150;6.504;2023-05-16T18:52:14;11.80;99.90
52439;DHT22;38359;53.150;6.504;2023-05-16T19:02:40;11.80;99.90
52439;DHT22;38359;53.150;6.504;2023-05-16T19:13:06;11.60;99.90
52439;DHT22;38359;53.150;6.504;2023-05-16T19:23:33;11.60;99.90
52439;DHT22;38359;53.150;6.504;2023-05-16T19:33:58;11.50;99.90
52439;DHT22;38359;53.150;6.504;2023-05-16T19:44:24;11.30;99.90
52439;DHT22;38359;53.150;6.504;2023-05-16T19:54:50;10.90;99.90
52439;DHT22;38359;53.150;6.504;2023-05-16T20:05:16;10.90;99.90
52439;DHT22;38359;53.150;6.504;2023-05-16T20:15:46;10.80;99.90
52439;DHT22;38359;53.150;6.504;2023-05-16T20:26:12;10.60;99.90
52439;DHT22;38359;53.150;6.504;2023-05-16T20:36:40;10.60;99.90
52439;DHT22;38359;53.150;6.504;2023-05-16T20:47:07;10.60;99.90
52439;DHT22;38359;53.150;6.504;2023-05-16T20:57:33;10.70;99.90
52439;DHT22;38359;53.150;6.504;2023-05-16T21:07:58;10.80;99.90
52439;DHT22;38359;53.150;6.504;2023-05-16T21:18:24;10.60;99.90
52439;DHT22;38359;53.150;6.504;2023-05-16T21:28:50;10.70;99.90
52439;DHT22;38359;53.150;6.504;2023-05-16T21:39:16;10.80;99.90
52439;DHT22;38359;53.150;6.504;2023-05-16T21:49:42;10.70;99.90
52439;DHT22;38359;53.150;6.504;2023-05-16T22:00:08;10.70;99.90
52439;DHT22;38359;53.150;6.504;2023-05-16T22:10:34;10.80;99.90
52439;DHT22;38359;53.150;6.504;2023-05-16T22:21:00;10.90;99.90
52439;DHT22;38359;53.150;6.504;2023-05-16T22:31:26;10.90;99.90
52439;DHT22;38359;53.150;6.504;2023-05-16T22:41:52;10.80;99.90
52439;DHT22;38359;53.150;6.504;2023-05-16T22:52:17;10.50;99.90
52439;DHT22;38359;53.150;6.504;2023-05-16T23:02:43;10.40;99.90
52439;DHT22;38359;53.150;6.504;2023-05-16T23:13:09;10.30;99.90
52439;DHT22;38359;53.150;6.504;2023-05-16T23:23:35;10.10;99.90
52439;DHT22;38359;53.150;6.504;2023-05-16T23:34:01;9.80;99.90
52439;DHT22;38359;53.150;6.504;2023-05-16T23:44:26;9.50;99.90
52439;DHT22;38359;53.150;6.504;2023-05-16T23:54:52;9.30;99.90
